createdAt,value
2022-10-03T00:01:34.175Z,7.00
2022-10-03T00:03:40.520Z,6.90
2022-10-03T00:05:42.600Z,7.45
2022-10-03T00:07:55.463Z,7.25
2022-10-03T00:09:56.931Z,7.40
2022-10-03T00:12:04.377Z,7.10
2022-10-03T00:14:17.961Z,6.93
2022-10-03T00:16:42.525Z,7.38
2022-10-03T00:18:50.115Z,6.97
2022-10-03T00:21:09.743Z,6.90
2022-10-03T00:23:49.605Z,7.22
2022-10-03T00:25:51.327Z,7.45
2022-10-03T00:28:09.921Z,7.00
2022-10-03T00:30:16.149Z,6.90
2022-10-03T00:32:17.857Z,7.38
2022-10-03T00:34:25.650Z,7.70
2022-10-03T00:36:35.106Z,6.88
2022-10-03T00:38:52.220Z,6.68
2022-10-03T00:41:02.882Z,7.28
2022-10-03T00:43:28.076Z,6.95
2022-10-03T00:45:49.756Z,7.65
2022-10-03T00:47:51.278Z,7.03
2022-10-03T00:50:04.364Z,7.22
2022-10-03T00:52:14.500Z,7.68
2022-10-03T00:54:25.004Z,8.40
2022-10-03T00:56:36.848Z,8.30
2022-10-03T00:58:39.350Z,7.35
2022-10-03T01:00:43.754Z,7.30
2022-10-03T01:02:51.921Z,7.38
2022-10-03T01:05:26.171Z,7.63
2022-10-03T01:07:39.922Z,8.13
2022-10-03T01:09:47.494Z,8.13
2022-10-03T01:12:07.951Z,8.32
2022-10-03T01:14:09.482Z,8.50
2022-10-03T01:16:29.876Z,8.40
2022-10-03T01:18:43.855Z,8.02
2022-10-03T01:20:45.399Z,8.80
2022-10-03T01:23:06.496Z,8.57
2022-10-03T01:25:12.939Z,7.72
2022-10-03T01:27:17.986Z,9.13
2022-10-03T01:29:44.623Z,8.10
2022-10-03T01:31:46.318Z,8.35
2022-10-03T01:33:54.846Z,8.35
2022-10-03T01:35:59.484Z,8.43
2022-10-03T01:38:20.679Z,8.55
2022-10-03T01:40:30.139Z,8.75
2022-10-03T01:42:36.812Z,8.65
2022-10-03T01:44:40.478Z,8.45
2022-10-03T01:46:47.197Z,9.30
2022-10-03T01:48:53.486Z,9.75
2022-10-03T01:51:16.727Z,9.40
2022-10-03T01:53:30.599Z,9.02
2022-10-03T01:55:55.670Z,9.77
2022-10-03T01:58:08.539Z,9.88
2022-10-03T02:00:24.045Z,10.35
2022-10-03T02:02:29.100Z,9.55
2022-10-03T02:04:34.138Z,10.13
2022-10-03T02:06:35.614Z,10.43
2022-10-03T02:08:37.223Z,10.38
2022-10-03T02:10:39.697Z,10.23
2022-10-03T02:12:46.682Z,10.07
2022-10-03T02:15:02.355Z,10.35
2022-10-03T02:17:21.007Z,10.18
2022-10-03T02:19:25.999Z,10.50
2022-10-03T02:21:29.833Z,9.13
2022-10-03T02:23:31.728Z,9.90
2022-10-03T02:25:36.412Z,9.45
2022-10-03T02:27:37.912Z,10.30
2022-10-03T02:29:39.699Z,9.80
2022-10-03T02:31:57.005Z,10.10
2022-10-03T02:34:17.584Z,9.80
2022-10-03T02:36:38.067Z,9.45
2022-10-03T02:38:46.804Z,10.88
2022-10-03T02:41:03.787Z,11.18
2022-10-03T02:43:16.244Z,11.02
2022-10-03T02:45:17.791Z,11.48
2022-10-03T02:47:22.127Z,10.77
2022-10-03T02:49:29.953Z,11.05
2022-10-03T02:51:50.178Z,11.68
2022-10-03T02:53:55.098Z,9.73
2022-10-03T02:56:08.678Z,11.27
2022-10-03T02:58:19.343Z,10.35
2022-10-03T03:00:22.391Z,10.90
2022-10-03T03:02:36.219Z,10.52
2022-10-03T03:05:03.804Z,10.60
2022-10-03T03:07:11.358Z,11.10
2022-10-03T03:09:32.009Z,10.50
2022-10-03T03:11:39.283Z,10.10
2022-10-03T03:13:53.480Z,10.20
2022-10-03T03:16:14.227Z,10.95
2022-10-03T03:18:18.524Z,10.70
2022-10-03T03:20:31.292Z,10.50
2022-10-03T03:22:37.065Z,10.02
2022-10-03T03:24:49.471Z,10.20
2022-10-03T03:26:54.085Z,11.33
2022-10-03T03:29:07.959Z,9.90
2022-10-03T03:31:14.625Z,10.15
2022-10-03T03:33:28.344Z,9.65
2022-10-03T03:35:50.323Z,9.60
2022-10-03T03:37:58.549Z,11.27
2022-10-03T03:40:00.051Z,10.90
2022-10-03T03:42:22.303Z,11.35
2022-10-03T03:44:47.540Z,10.60
2022-10-03T03:47:01.298Z,9.70
2022-10-03T03:49:21.594Z,9.93
2022-10-03T03:51:32.993Z,10.07
2022-10-03T03:53:53.223Z,10.25
2022-10-03T03:56:15.418Z,9.93
2022-10-03T03:58:16.894Z,10.13
2022-10-03T04:00:23.663Z,10.75
2022-10-03T04:02:31.477Z,11.15
2022-10-03T04:04:33.011Z,11.02
2022-10-03T04:06:47.334Z,10.40
2022-10-03T04:08:51.981Z,10.70
2022-10-03T04:11:19.116Z,10.15
2022-10-03T04:13:49.959Z,10.15
2022-10-03T04:16:44.091Z,9.70
2022-10-03T04:18:59.720Z,10.88
2022-10-03T04:21:01.696Z,9.65
2022-10-03T04:23:03.461Z,10.80
2022-10-03T04:25:23.811Z,10.45
2022-10-03T04:27:33.051Z,11.15
2022-10-03T04:29:42.479Z,11.25
2022-10-03T04:31:49.703Z,10.18
2022-10-03T04:33:57.988Z,10.70
2022-10-03T04:36:11.903Z,10.25
2022-10-03T04:38:33.684Z,10.05
2022-10-03T04:40:44.007Z,9.85
2022-10-03T04:42:46.420Z,10.90
2022-10-03T04:45:07.708Z,10.50
2022-10-03T04:47:28.586Z,10.35
2022-10-03T04:49:32.944Z,10.02
2022-10-03T04:51:40.682Z,10.88
2022-10-03T04:53:51.734Z,10.38
2022-10-03T04:55:55.961Z,10.02
2022-10-03T04:58:05.541Z,9.85
2022-10-03T05:00:16.656Z,9.30
2022-10-03T05:02:21.259Z,10.07
2022-10-03T05:04:22.885Z,9.63
2022-10-03T05:06:31.651Z,9.38
2022-10-03T05:08:36.223Z,10.05
2022-10-03T05:10:37.718Z,10.00
2022-10-03T05:12:39.924Z,10.45
2022-10-03T05:14:44.638Z,9.68
2022-10-03T05:17:04.865Z,10.20
2022-10-03T05:19:06.652Z,10.10
2022-10-03T05:21:11.108Z,10.23
2022-10-03T05:23:12.646Z,10.18
2022-10-03T05:25:15.133Z,9.77
2022-10-03T05:27:25.050Z,9.90
2022-10-03T05:29:38.978Z,10.70
2022-10-03T05:31:40.944Z,10.70
2022-10-03T05:33:52.042Z,10.40
2022-10-03T05:35:53.536Z,10.77
2022-10-03T05:38:04.348Z,9.18
2022-10-03T05:40:15.221Z,9.82
2022-10-03T05:42:29.186Z,9.93
2022-10-03T05:44:38.780Z,9.95
2022-10-03T05:46:46.027Z,9.32
2022-10-03T05:48:54.174Z,9.75
2022-10-03T05:51:06.852Z,10.27
2022-10-03T05:53:18.536Z,9.48
2022-10-03T05:55:35.519Z,8.88
2022-10-03T05:57:39.061Z,9.20
2022-10-03T05:59:46.077Z,9.63
2022-10-03T06:02:07.102Z,9.23
2022-10-03T06:04:12.639Z,9.43
2022-10-03T06:06:34.439Z,9.27
2022-10-03T06:08:48.711Z,8.50
2022-10-03T06:10:53.415Z,8.68
2022-10-03T06:13:06.869Z,8.48
2022-10-03T06:15:27.533Z,8.30
2022-10-03T06:17:44.654Z,7.78
2022-10-03T06:19:46.475Z,7.43
2022-10-03T06:22:06.518Z,8.00
2022-10-03T06:24:25.047Z,7.65
2022-10-03T06:26:45.725Z,7.53
2022-10-03T06:28:51.237Z,8.13
2022-10-03T06:30:53.279Z,8.05
2022-10-03T06:32:55.063Z,7.78
2022-10-03T06:35:04.098Z,7.82
2022-10-03T06:37:24.360Z,7.00
2022-10-03T06:39:50.219Z,7.53
2022-10-03T06:41:55.069Z,6.70
2022-10-03T06:43:59.999Z,6.82
2022-10-03T06:46:16.679Z,7.22
2022-10-03T06:48:18.248Z,5.95
2022-10-03T06:50:22.783Z,6.40
2022-10-03T06:52:33.280Z,6.70
2022-10-03T06:54:52.144Z,5.93
2022-10-03T06:57:03.089Z,5.63
2022-10-03T06:59:11.227Z,6.00
2022-10-03T07:01:13.605Z,5.45
2022-10-03T07:03:37.255Z,6.20
2022-10-03T07:09:53.893Z,5.45
2022-10-03T07:12:16.811Z,5.88
2022-10-03T07:14:27.833Z,5.25
2022-10-03T07:16:45.056Z,5.00
2022-10-03T07:19:04.695Z,4.82
2022-10-03T07:21:21.471Z,5.00
2022-10-03T07:23:42.117Z,5.03
2022-10-03T07:25:59.791Z,4.75
2022-10-03T07:28:07.619Z,4.72
2022-10-03T07:30:26.251Z,4.55
2022-10-03T07:32:46.408Z,4.70
2022-10-03T07:35:02.673Z,4.13
2022-10-03T07:37:32.535Z,3.72
2022-10-03T07:39:57.097Z,3.50
2022-10-03T07:42:17.294Z,4.20
2022-10-03T07:44:31.098Z,3.33
2022-10-03T07:46:35.614Z,4.15
2022-10-03T07:48:40.155Z,3.67
2022-10-03T07:50:44.999Z,3.53
2022-10-03T07:53:15.834Z,3.50
2022-10-03T07:55:29.598Z,3.80
2022-10-03T07:57:50.761Z,3.00
2022-10-03T08:00:11.037Z,3.00
2022-10-03T08:02:15.735Z,3.58
2022-10-03T08:04:17.575Z,3.65
2022-10-03T08:06:26.376Z,3.72
2022-10-03T08:08:37.070Z,3.05
2022-10-03T08:10:59.602Z,3.10
2022-10-03T08:13:27.048Z,3.67
2022-10-03T08:15:47.564Z,3.20
2022-10-03T08:18:02.377Z,3.28
2022-10-03T08:20:05.407Z,3.20
2022-10-03T08:22:14.919Z,3.45
2022-10-03T08:24:19.707Z,3.47
2022-10-03T08:26:32.697Z,3.60
2022-10-03T08:28:52.975Z,3.33
2022-10-03T08:30:57.764Z,3.30
2022-10-03T08:33:17.698Z,3.13
2022-10-03T08:35:38.812Z,9.57
2022-10-03T08:37:49.367Z,3.22
2022-10-03T08:39:59.827Z,3.10
2022-10-03T08:42:13.680Z,3.38
2022-10-03T08:44:34.279Z,3.78
2022-10-03T08:46:55.407Z,2.85
2022-10-03T08:49:12.223Z,3.38
2022-10-03T08:51:35.040Z,3.42
2022-10-03T08:53:42.635Z,3.28
2022-10-03T08:56:04.271Z,3.70
2022-10-03T08:58:21.463Z,3.88
2022-10-03T09:00:41.619Z,3.75
2022-10-03T09:03:13.984Z,3.75
2022-10-03T09:05:24.613Z,3.88
2022-10-03T09:07:45.319Z,3.90
2022-10-03T09:09:58.940Z,3.90
2022-10-03T09:12:06.761Z,3.45
2022-10-03T09:14:27.221Z,3.95
2022-10-03T09:16:48.252Z,3.58
2022-10-03T09:19:08.821Z,3.58
2022-10-03T09:21:28.848Z,3.47
2022-10-03T09:23:38.379Z,3.72
2022-10-03T09:25:59.152Z,4.10
2022-10-03T09:28:03.594Z,4.18
2022-10-03T09:30:18.556Z,5.05
2022-10-03T09:32:39.367Z,4.43
2022-10-03T09:35:01.756Z,4.43
2022-10-03T09:37:15.635Z,4.45
2022-10-03T09:39:17.759Z,4.35
2022-10-03T09:41:38.478Z,4.18
2022-10-03T09:43:57.107Z,4.32
2022-10-03T09:46:07.240Z,4.78
2022-10-03T09:48:20.445Z,4.97
2022-10-03T09:50:36.540Z,4.25
2022-10-03T09:52:41.600Z,4.63
2022-10-03T09:54:44.151Z,4.60
2022-10-03T09:57:04.902Z,5.40
2022-10-03T09:59:25.187Z,4.10
2022-10-03T10:01:30.941Z,4.47
2022-10-03T10:03:35.293Z,4.43
2022-10-03T10:05:40.389Z,4.78
2022-10-03T10:07:41.942Z,4.07
2022-10-03T10:09:56.993Z,4.10
2022-10-03T10:12:08.110Z,4.32
2022-10-03T10:14:30.188Z,4.00
2022-10-03T10:16:44.691Z,4.32
2022-10-03T10:19:04.850Z,3.72
2022-10-03T10:21:21.540Z,3.75
2022-10-03T10:23:23.051Z,3.92
2022-10-03T10:25:31.484Z,4.75
2022-10-03T10:27:47.807Z,4.60
2022-10-03T10:30:08.217Z,4.78
2022-10-03T10:32:21.790Z,4.03
2022-10-03T10:34:23.827Z,5.05
2022-10-03T10:36:44.898Z,3.80
2022-10-03T10:38:49.711Z,3.67
2022-10-03T10:41:10.807Z,3.67
2022-10-03T10:43:18.115Z,4.22
2022-10-03T10:45:47.297Z,3.58
2022-10-03T10:48:21.244Z,3.53
2022-10-03T10:50:42.050Z,3.30
2022-10-03T10:52:43.816Z,2.88
2022-10-03T10:54:54.603Z,3.50
2022-10-03T10:57:15.219Z,3.30
2022-10-03T10:59:55.206Z,3.65
2022-10-03T11:01:56.921Z,4.00
2022-10-03T11:04:17.383Z,3.45
2022-10-03T11:06:37.763Z,3.60
2022-10-03T11:09:10.058Z,3.20
2022-10-03T11:11:30.655Z,2.88
2022-10-03T11:13:55.578Z,3.03
2022-10-03T11:16:00.253Z,2.90
2022-10-03T11:18:15.531Z,1.90
2022-10-03T11:20:35.407Z,1.70
2022-10-03T11:22:40.721Z,1.10
2022-10-03T11:24:42.365Z,1.40
2022-10-03T11:27:02.973Z,1.05
2022-10-03T11:29:10.809Z,1.30
2022-10-03T11:31:31.670Z,1.40
2022-10-03T11:33:48.830Z,1.20
2022-10-03T11:36:11.142Z,1.70
2022-10-03T11:38:12.777Z,1.30
2022-10-03T11:40:40.372Z,1.67
2022-10-03T11:42:42.126Z,1.25
2022-10-03T11:44:55.995Z,1.40
2022-10-03T11:46:57.516Z,1.58
2022-10-03T11:49:18.061Z,2.03
2022-10-03T11:51:40.054Z,1.90
2022-10-03T11:54:03.622Z,1.95
2022-10-03T11:56:20.572Z,1.92
2022-10-03T11:58:34.369Z,2.30
2022-10-03T12:00:37.327Z,1.95
2022-10-03T12:02:42.177Z,1.70
2022-10-03T12:04:53.111Z,1.70
2022-10-03T12:07:22.311Z,1.60
2022-10-03T12:09:26.809Z,1.77
2022-10-03T12:11:42.891Z,1.45
2022-10-03T12:14:01.933Z,1.95
2022-10-03T12:16:06.260Z,1.70
2022-10-03T12:18:14.621Z,1.73
2022-10-03T12:20:38.919Z,1.70
2022-10-03T12:23:02.348Z,1.50
2022-10-03T12:25:19.382Z,1.80
2022-10-03T12:27:41.265Z,1.85
2022-10-03T12:29:47.179Z,1.73
2022-10-03T12:31:54.624Z,1.70
2022-10-03T12:33:59.243Z,1.65
2022-10-03T12:36:19.740Z,2.17
2022-10-03T12:38:40.027Z,1.95
2022-10-03T12:40:49.995Z,2.10
2022-10-03T12:42:51.721Z,2.10
2022-10-03T12:45:03.653Z,1.63
2022-10-03T12:47:37.664Z,1.65
2022-10-03T12:49:48.524Z,2.15
2022-10-03T12:51:53.219Z,1.60
2022-10-03T12:53:57.870Z,1.23
2022-10-03T12:56:15.426Z,1.35
2022-10-03T12:58:23.420Z,1.27
2022-10-03T13:00:36.390Z,1.30
2022-10-03T13:03:02.731Z,1.42
2022-10-03T13:05:23.080Z,1.90
2022-10-03T13:07:28.503Z,2.22
2022-10-03T13:09:48.451Z,3.22
2022-10-03T13:11:50.690Z,2.83
2022-10-03T13:14:10.958Z,2.45
2022-10-03T13:16:30.131Z,1.88
2022-10-03T13:18:40.832Z,1.20
2022-10-03T13:20:45.582Z,1.10
2022-10-03T13:22:52.327Z,1.45
2022-10-03T13:25:09.084Z,1.13
2022-10-03T13:27:32.251Z,1.23
2022-10-03T13:29:40.609Z,1.30
2022-10-03T13:31:55.248Z,1.52
2022-10-03T13:34:00.408Z,1.60
2022-10-03T13:36:20.579Z,1.45
2022-10-03T13:38:40.310Z,1.50
2022-10-03T13:40:48.592Z,1.10
2022-10-03T13:42:53.807Z,1.42
2022-10-03T13:44:57.399Z,1.23
2022-10-03T13:47:01.748Z,1.33
2022-10-03T13:49:11.076Z,1.30
2022-10-03T13:51:22.033Z,1.80
2022-10-03T13:53:36.571Z,1.85
2022-10-03T13:55:48.072Z,2.53
2022-10-03T13:58:08.585Z,2.95
2022-10-03T14:00:12.536Z,3.25
2022-10-03T14:02:33.288Z,2.92
2022-10-03T14:04:37.638Z,3.15
2022-10-03T14:06:43.390Z,2.58
2022-10-03T14:08:55.477Z,3.00
2022-10-03T14:11:05.031Z,1.90
2022-10-03T14:13:25.284Z,1.88
2022-10-03T14:15:45.211Z,2.35
2022-10-03T14:17:53.235Z,2.08
2022-10-03T14:20:13.679Z,1.80
2022-10-03T14:22:22.632Z,1.70
2022-10-03T14:24:34.714Z,1.75
2022-10-03T14:26:56.927Z,1.40
2022-10-03T14:29:10.954Z,1.85
2022-10-03T14:31:16.661Z,1.38
2022-10-03T14:33:28.460Z,1.20
2022-10-03T14:35:42.848Z,1.10
2022-10-03T14:37:59.322Z,1.00
2022-10-03T14:40:22.395Z,1.10
2022-10-03T14:42:24.111Z,1.27
2022-10-03T14:44:36.534Z,1.35
2022-10-03T14:46:45.759Z,1.13
2022-10-03T14:48:50.742Z,1.30
2022-10-03T14:50:54.891Z,1.52
2022-10-03T14:53:02.056Z,1.02
2022-10-03T14:55:08.809Z,0.80
2022-10-03T14:57:47.579Z,1.38
2022-10-03T14:59:57.856Z,1.05
2022-10-03T15:02:01.205Z,1.20
2022-10-03T15:06:10.615Z,1.35
2022-10-03T15:08:15.604Z,1.10
2022-10-03T15:10:22.769Z,1.20
2022-10-03T15:12:27.012Z,1.63
2022-10-03T15:14:31.019Z,1.27
2022-10-03T15:16:35.911Z,1.38
2022-10-03T15:18:37.838Z,1.20
2022-10-03T15:20:41.768Z,1.20
2022-10-03T15:22:48.264Z,1.17
2022-10-03T15:24:51.750Z,1.13
2022-10-03T15:27:04.479Z,1.42
2022-10-03T15:29:07.384Z,1.15
2022-10-03T15:33:11.503Z,1.13
2022-10-03T15:35:22.532Z,1.60
2022-10-03T15:37:26.514Z,1.63
2022-10-03T15:39:31.412Z,1.55
2022-10-03T15:41:46.758Z,1.20
2022-10-03T15:43:55.003Z,2.05
2022-10-03T15:45:57.986Z,1.23
2022-10-03T15:48:01.427Z,1.40
2022-10-03T15:50:03.017Z,1.40
2022-10-03T15:52:15.798Z,1.77
2022-10-03T15:54:21.321Z,1.40
2022-10-03T15:56:27.391Z,1.75
2022-10-03T15:58:33.082Z,1.50
2022-10-03T16:00:36.109Z,1.90
2022-10-03T16:04:41.038Z,2.58
2022-10-03T16:06:49.921Z,2.97
2022-10-03T16:09:00.658Z,2.83
2022-10-03T16:11:09.384Z,2.88
2022-10-03T16:13:23.026Z,2.40
2022-10-03T16:15:28.529Z,2.67
2022-10-03T16:17:42.872Z,3.10
2022-10-03T16:19:59.367Z,3.00
2022-10-03T16:22:11.049Z,4.18
2022-10-03T16:24:18.303Z,2.45
2022-10-03T16:26:24.751Z,1.98
2022-10-03T16:28:41.977Z,1.90
2022-10-03T16:30:57.049Z,2.00
2022-10-03T16:33:18.546Z,1.77
2022-10-03T16:35:29.452Z,1.98
2022-10-03T16:37:31.850Z,1.40
2022-10-03T16:39:34.596Z,1.90
2022-10-03T16:41:40.753Z,1.95
2022-10-03T16:43:54.624Z,2.17
2022-10-03T16:45:59.398Z,2.08
2022-10-03T16:48:21.595Z,2.30
2022-10-03T16:50:26.076Z,2.15
2022-10-03T16:52:38.159Z,1.98
2022-10-03T16:54:41.224Z,1.63
2022-10-03T16:56:48.484Z,1.88
2022-10-03T16:58:54.468Z,1.60
2022-10-03T17:01:25.311Z,1.63
2022-10-03T17:03:23.371Z,2.00
2022-10-03T17:05:25.668Z,2.00
2022-10-03T17:07:30.124Z,1.70
2022-10-03T17:09:31.842Z,2.05
2022-10-03T17:11:37.513Z,1.80
2022-10-03T17:13:46.228Z,1.98
2022-10-03T17:15:54.219Z,1.90
2022-10-03T17:18:02.384Z,1.98
2022-10-03T17:20:14.017Z,2.00
2022-10-03T17:22:19.849Z,2.10
2022-10-03T17:24:22.810Z,1.80
2022-10-03T17:26:29.527Z,2.05
2022-10-03T17:28:38.061Z,2.00
2022-10-03T17:30:39.690Z,2.30
2022-10-03T17:32:42.834Z,2.65
2022-10-03T17:34:51.382Z,3.50
2022-10-03T17:36:55.869Z,3.60
2022-10-03T17:39:04.701Z,3.70
2022-10-03T17:41:12.652Z,3.65
2022-10-03T17:43:21.968Z,3.67
2022-10-03T17:45:26.754Z,4.38
2022-10-03T17:47:34.107Z,4.25
2022-10-03T17:49:35.647Z,3.92
2022-10-03T17:51:42.499Z,3.50
2022-10-03T17:53:54.238Z,4.15
2022-10-03T17:56:03.520Z,3.78
2022-10-03T17:58:06.723Z,4.22
2022-10-03T18:00:17.863Z,3.80
2022-10-03T18:02:21.556Z,3.97
2022-10-03T18:04:34.636Z,3.65
2022-10-03T18:06:39.470Z,3.75
2022-10-03T18:08:41.424Z,3.70
2022-10-03T18:10:49.214Z,3.88
2022-10-03T18:12:54.039Z,4.00
2022-10-03T18:15:18.708Z,3.05
2022-10-03T18:17:27.436Z,3.33
2022-10-03T18:19:29.303Z,3.67
2022-10-03T18:21:32.575Z,3.45
2022-10-03T18:23:54.209Z,3.08
2022-10-03T18:26:20.966Z,2.97
2022-10-03T18:28:26.163Z,2.92
2022-10-03T18:30:50.851Z,3.30
2022-10-03T18:32:53.464Z,3.40
2022-10-03T18:35:15.321Z,3.78
2022-10-03T18:37:25.942Z,3.35
2022-10-03T18:39:34.105Z,3.63
2022-10-03T18:41:35.759Z,3.33
2022-10-03T18:43:45.124Z,3.47
2022-10-03T18:45:48.991Z,4.15
2022-10-03T18:47:52.484Z,3.70
2022-10-03T18:50:03.372Z,5.40
2022-10-03T18:52:22.648Z,4.45
2022-10-03T18:54:34.933Z,3.60
2022-10-03T18:56:37.804Z,5.28
2022-10-03T18:58:42.660Z,4.50
2022-10-03T19:00:52.813Z,4.50
2022-10-03T19:02:59.872Z,4.05
2022-10-03T19:05:07.427Z,3.70
2022-10-03T19:07:16.908Z,4.50
2022-10-03T19:09:24.597Z,5.82
2022-10-03T19:11:29.386Z,4.25
2022-10-03T19:13:43.625Z,4.38
2022-10-03T19:16:03.894Z,3.97
2022-10-03T19:18:21.117Z,4.95
2022-10-03T19:20:32.626Z,5.75
2022-10-03T19:22:39.143Z,5.10
2022-10-03T19:24:57.767Z,4.78
2022-10-03T19:27:03.213Z,4.88
2022-10-03T19:29:06.140Z,5.07
2022-10-03T19:31:15.633Z,4.78
2022-10-03T19:33:21.808Z,4.60
2022-10-03T19:35:24.481Z,4.75
2022-10-03T19:37:33.764Z,4.82
2022-10-03T19:39:35.504Z,4.95
2022-10-03T19:41:37.190Z,4.93
2022-10-03T19:43:42.122Z,5.38
2022-10-03T19:45:49.365Z,5.70
2022-10-03T19:47:52.351Z,5.55
2022-10-03T19:49:59.967Z,5.35
2022-10-03T19:52:10.122Z,5.47
2022-10-03T19:54:12.761Z,5.55
2022-10-03T19:56:15.252Z,6.20
2022-10-03T19:58:19.905Z,6.35
2022-10-03T20:00:34.855Z,6.00
2022-10-03T20:02:36.875Z,6.45
2022-10-03T20:04:38.881Z,6.85
2022-10-03T20:06:42.523Z,6.68
2022-10-03T20:08:45.626Z,6.43
2022-10-03T20:10:51.719Z,6.45
2022-10-03T20:12:53.467Z,7.03
2022-10-03T20:14:58.141Z,6.63
2022-10-03T20:17:04.228Z,6.95
2022-10-03T20:19:08.370Z,7.38
2022-10-03T20:21:11.454Z,7.47
2022-10-03T20:23:15.082Z,6.63
2022-10-03T20:25:52.308Z,7.20
2022-10-03T20:27:54.738Z,7.20
2022-10-03T20:30:15.093Z,7.25
2022-10-03T20:32:17.618Z,6.80
2022-10-03T20:34:22.033Z,6.90
2022-10-03T20:36:29.015Z,7.15
2022-10-03T20:38:39.398Z,8.23
2022-10-03T20:40:45.807Z,8.48
2022-10-03T20:42:48.246Z,8.57
2022-10-03T20:44:49.805Z,8.68
2022-10-03T20:46:53.476Z,8.32
2022-10-03T20:49:14.099Z,8.25
2022-10-03T20:51:22.460Z,8.32
2022-10-03T20:53:26.201Z,8.57
2022-10-03T20:55:31.196Z,7.97
2022-10-03T20:57:37.849Z,8.82
2022-10-03T20:59:46.179Z,8.18
2022-10-03T21:01:48.670Z,8.25
2022-10-03T21:03:57.271Z,8.60
2022-10-03T21:05:59.919Z,8.73
2022-10-03T21:08:06.448Z,8.70
2022-10-03T21:10:08.123Z,9.07
2022-10-03T21:12:16.294Z,8.52
2022-10-03T21:14:28.456Z,9.50
2022-10-03T21:16:38.705Z,8.50
2022-10-03T21:18:41.408Z,9.57
2022-10-03T21:20:44.414Z,9.48
2022-10-03T21:24:59.316Z,12.32
2022-10-03T21:27:21.099Z,9.75
2022-10-03T21:29:28.738Z,10.18
2022-10-03T21:32:06.184Z,9.68
2022-10-03T21:34:15.292Z,9.95
2022-10-03T21:36:25.197Z,10.43
2022-10-03T21:38:28.251Z,10.50
2022-10-03T21:40:42.631Z,9.57
2022-10-03T21:42:47.155Z,10.23
2022-10-03T21:44:55.068Z,10.02
2022-10-03T21:46:56.594Z,10.55
2022-10-03T21:49:01.241Z,9.90
2022-10-03T21:51:13.550Z,10.13
2022-10-03T21:53:39.211Z,10.77
2022-10-03T21:55:52.511Z,10.38
2022-10-03T21:58:10.155Z,10.65
2022-10-03T22:00:15.992Z,10.55
2022-10-03T22:02:36.752Z,9.77
2022-10-03T22:04:38.774Z,10.43
2022-10-03T22:06:54.477Z,10.95
2022-10-03T22:09:01.187Z,11.20
2022-10-03T22:11:06.482Z,15.57
2022-10-03T22:13:09.247Z,10.52
2022-10-03T22:15:16.179Z,10.82
2022-10-03T22:17:17.919Z,10.20
2022-10-03T22:19:38.248Z,11.32
2022-10-03T22:21:45.570Z,12.27
2022-10-03T22:23:55.193Z,10.55
2022-10-03T22:26:02.780Z,10.43
2022-10-03T22:28:10.237Z,10.05
2022-10-03T22:30:13.901Z,10.52
2022-10-03T22:32:18.582Z,11.20
2022-10-03T22:34:32.254Z,10.52
2022-10-03T22:36:36.151Z,10.82
2022-10-03T22:38:38.777Z,10.38
2022-10-03T22:40:41.044Z,10.38
2022-10-03T22:42:44.767Z,10.52
2022-10-03T22:44:47.919Z,9.45
2022-10-03T22:46:51.416Z,10.38
2022-10-03T22:48:59.344Z,10.07
2022-10-03T22:51:02.601Z,9.52
2022-10-03T22:53:04.376Z,9.85
2022-10-03T22:55:08.534Z,10.07
2022-10-03T22:57:11.299Z,9.65
2022-10-03T22:59:36.245Z,9.55
2022-10-03T23:01:40.623Z,9.88
2022-10-03T23:03:42.415Z,10.77
2022-10-03T23:05:46.812Z,10.13
2022-10-03T23:08:00.610Z,10.30
2022-10-03T23:10:11.030Z,10.07
2022-10-03T23:12:13.346Z,10.50
2022-10-03T23:14:21.876Z,11.15
2022-10-03T23:16:32.639Z,10.25
2022-10-03T23:18:48.338Z,10.98
2022-10-03T23:20:59.201Z,11.57
2022-10-03T23:23:03.917Z,11.38
2022-10-03T23:25:15.948Z,11.93
2022-10-03T23:27:56.743Z,12.02
2022-10-03T23:30:16.722Z,10.98
2022-10-03T23:32:38.248Z,11.65
2022-10-03T23:34:43.428Z,11.70
2022-10-03T23:36:59.023Z,11.98
2022-10-03T23:39:01.216Z,12.25
2022-10-03T23:41:04.877Z,12.15
2022-10-03T23:43:25.269Z,11.65
2022-10-03T23:45:29.680Z,11.80
2022-10-03T23:47:39.480Z,11.65
2022-10-03T23:49:42.429Z,12.05
2022-10-03T23:51:44.228Z,12.38
2022-10-03T23:53:47.333Z,11.50
2022-10-03T23:55:48.888Z,12.38
2022-10-03T23:57:50.807Z,11.02
2022-10-03T23:59:52.562Z,11.43
